sensor_id;sensor_type;location;lat;lon;timestamp;pressure;altitude;pressure_sealevel;temperature;humidity
64243;BME280;50573;51.512;5.386;2023-07-29T00:06:18;169434.84;;;18.50;100.00
64243;BME280;50573;51.512;5.386;2023-07-29T00:16:21;169440.19;;;18.52;100.00
64243;BME280;50573;51.512;5.386;2023-07-29T00:26:26;169437.50;;;18.51;100.00
64243;BME280;50573;51.512;5.386;2023-07-29T00:36:30;169434.84;;;18.50;100.00
64243;BME280;50573;51.512;5.386;2023-07-29T00:46:36;169434.84;;;18.50;100.00
64243;BME280;50573;51.512;5.386;2023-07-29T00:56:41;169416.19;;;18.43;100.00
64243;BME280;50573;51.512;5.386;2023-07-29T01:06:50;169389.56;;;18.33;100.00
64243;BME280;50573;51.512;5.386;2023-07-29T01:16:59;169365.56;;;18.24;100.00
64243;BME280;50573;51.512;5.386;2023-07-29T01:27:05;169340.25;;;18.15;100.00
64243;BME280;50573;51.512;5.386;2023-07-29T01:37:13;169325.59;;;18.09;100.00
64243;BME280;50573;51.512;5.386;2023-07-29T01:47:20;169360.22;;;18.22;100.00
64243;BME280;50573;51.512;5.386;2023-07-29T01:57:24;169365.56;;;18.24;100.00
64243;BME280;50573;51.512;5.386;2023-07-29T02:07:28;169392.19;;;18.34;100.00
64243;BME280;50573;51.512;5.386;2023-07-29T02:17:31;169397.53;;;18.36;100.00
64243;BME280;50573;51.512;5.386;2023-07-29T02:27:36;169360.22;;;18.22;100.00
64243;BME280;50573;51.512;5.386;2023-07-29T02:37:39;169309.63;;;18.03;100.00
64243;BME280;50573;51.512;5.386;2023-07-29T02:47:43;169259.06;;;17.84;100.00
64243;BME280;50573;51.512;5.386;2023-07-29T02:57:46;169229.78;;;17.73;100.00
64243;BME280;50573;51.512;5.386;2023-07-29T03:07:51;169199.16;;;17.61;100.00
64243;BME280;50573;51.512;5.386;2023-07-29T03:17:54;169193.81;;;17.59;100.00
64243;BME280;50573;51.512;5.386;2023-07-29T03:27:58;169172.53;;;17.51;100.00
64243;BME280;50573;51.512;5.386;2023-07-29T03:38:01;169147.19;;;17.42;100.00
64243;BME280;50573;51.512;5.386;2023-07-29T03:48:06;169125.91;;;17.34;100.00
64243;BME280;50573;51.512;5.386;2023-07-29T03:58:10;169103.25;;;17.25;100.00
64243;BME280;50573;51.512;5.386;2023-07-29T04:08:14;169081.97;;;17.17;100.00
64243;BME280;50573;51.512;5.386;2023-07-29T04:18:17;169075.34;;;17.15;100.00
64243;BME280;50573;51.512;5.386;2023-07-29T04:28:23;169083.31;;;17.18;100.00
64243;BME280;50573;51.512;5.386;2023-07-29T04:38:30;169135.22;;;17.37;100.00
64243;BME280;50573;51.512;5.386;2023-07-29T04:48:35;169171.19;;;17.51;100.00
64243;BME280;50573;51.512;5.386;2023-07-29T04:58:38;169192.47;;;17.59;100.00
64243;BME280;50573;51.512;5.386;2023-07-29T05:08:43;169216.47;;;17.68;100.00
64243;BME280;50573;51.512;5.386;2023-07-29T05:18:46;169260.41;;;17.84;100.00
64243;BME280;50573;51.512;5.386;2023-07-29T05:28:51;169281.69;;;17.92;100.00
64243;BME280;50573;51.512;5.386;2023-07-29T05:38:54;169293.66;;;17.97;100.00
64243;BME280;50573;51.512;5.386;2023-07-29T05:48:58;169376.22;;;18.28;100.00
64243;BME280;50573;51.512;5.386;2023-07-29T05:59:02;169518.78;;;18.82;100.00
64243;BME280;50573;51.512;5.386;2023-07-29T06:09:06;169621.34;;;19.20;100.00
64243;BME280;50573;51.512;5.386;2023-07-29T06:19:09;169778.63;;;19.80;100.00
64243;BME280;50573;51.512;5.386;2023-07-29T06:29:14;169789.31;;;19.84;100.00
64243;BME280;50573;51.512;5.386;2023-07-29T06:39:17;169789.31;;;19.84;100.00
64243;BME280;50573;51.512;5.386;2023-07-29T06:49:21;169791.94;;;19.85;100.00
64243;BME280;50573;51.512;5.386;2023-07-29T06:59:25;169835.94;;;20.01;100.00
64243;BME280;50573;51.512;5.386;2023-07-29T07:09:29;170021.31;;;20.71;99.59
64243;BME280;50573;51.512;5.386;2023-07-29T07:19:32;170021.31;;;20.71;97.35
64243;BME280;50573;51.512;5.386;2023-07-29T07:29:36;170144.00;;;21.17;96.18
64243;BME280;50573;51.512;5.386;2023-07-29T07:39:40;170194.75;;;21.36;95.06
64243;BME280;50573;51.512;5.386;2023-07-29T07:49:44;170325.50;;;21.85;94.31
64243;BME280;50573;51.512;5.386;2023-07-29T07:59:47;170397.59;;;22.13;89.50
64243;BME280;50573;51.512;5.386;2023-07-29T08:09:52;170398.88;;;22.13;88.65
64243;BME280;50573;51.512;5.386;2023-07-29T08:19:56;170476.28;;;22.42;85.94
64243;BME280;50573;51.512;5.386;2023-07-29T08:30:00;170397.59;;;22.13;86.97
64243;BME280;50573;51.512;5.386;2023-07-29T08:40:06;170362.88;;;22.00;87.25
64243;BME280;50573;51.512;5.386;2023-07-29T08:50:11;170456.28;;;22.35;86.06
64243;BME280;50573;51.512;5.386;2023-07-29T09:00:16;170611.16;;;22.93;81.59
64243;BME280;50573;51.512;5.386;2023-07-29T09:10:25;170772.78;;;23.54;79.68
64243;BME280;50573;51.512;5.386;2023-07-29T09:20:28;170811.53;;;23.68;79.37
64243;BME280;50573;51.512;5.386;2023-07-29T09:30:33;170742.06;;;23.42;79.82
64243;BME280;50573;51.512;5.386;2023-07-29T09:40:36;170915.72;;;24.07;78.13
64243;BME280;50573;51.512;5.386;2023-07-29T09:50:41;170827.53;;;23.74;76.48
64243;BME280;50573;51.512;5.386;2023-07-29T10:00:44;170787.44;;;23.59;79.17
64243;BME280;50573;51.512;5.386;2023-07-29T10:10:49;170812.81;;;23.69;80.22
64243;BME280;50573;51.512;5.386;2023-07-29T10:20:54;171102.81;;;24.78;76.22
64243;BME280;50573;51.512;5.386;2023-07-29T10:31:00;171161.63;;;25.00;72.23
64243;BME280;50573;51.512;5.386;2023-07-29T10:41:05;171281.97;;;25.45;71.81
64243;BME280;50573;51.512;5.386;2023-07-29T10:51:26;171265.91;;;25.39;70.74
64243;BME280;50573;51.512;5.386;2023-07-29T11:01:31;171243.16;;;25.30;72.07
64243;BME280;50573;51.512;5.386;2023-07-29T11:11:39;171129.53;;;24.88;72.20
64243;BME280;50573;51.512;5.386;2023-07-29T11:21:42;170903.69;;;24.03;77.29
64243;BME280;50573;51.512;5.386;2023-07-29T11:31:47;171122.88;;;24.85;77.02
64243;BME280;50573;51.512;5.386;2023-07-29T11:41:50;171386.25;;;25.84;69.49
64243;BME280;50573;51.512;5.386;2023-07-29T11:51:54;171627.03;;;26.74;64.94
64243;BME280;50573;51.512;5.386;2023-07-29T12:02:06;171542.72;;;26.43;65.54
64243;BME280;50573;51.512;5.386;2023-07-29T12:12:13;171056.00;;;24.60;72.27
64243;BME280;50573;51.512;5.386;2023-07-29T12:22:19;170715.34;;;23.32;89.68
64243;BME280;50573;51.512;5.386;2023-07-29T12:32:25;170450.94;;;22.33;99.16
64243;BME280;50573;51.512;5.386;2023-07-29T12:42:28;170197.38;;;21.37;100.00
64243;BME280;50573;51.512;5.386;2023-07-29T12:52:33;170294.75;;;21.74;100.00
64243;BME280;50573;51.512;5.386;2023-07-29T13:02:36;170392.22;;;22.11;100.00
64243;BME280;50573;51.512;5.386;2023-07-29T13:12:44;170474.97;;;22.42;100.00
64243;BME280;50573;51.512;5.386;2023-07-29T13:22:47;170627.16;;;22.99;100.00
64243;BME280;50573;51.512;5.386;2023-07-29T13:32:52;170764.72;;;23.51;100.00
64243;BME280;50573;51.512;5.386;2023-07-29T13:42:57;170947.78;;;24.19;89.37
64243;BME280;50573;51.512;5.386;2023-07-29T13:53:02;170973.16;;;24.29;87.49
64243;BME280;50573;51.512;5.386;2023-07-29T14:03:06;171183.03;;;25.08;83.48
64243;BME280;50573;51.512;5.386;2023-07-29T14:13:11;171445.13;;;26.06;76.41
64243;BME280;50573;51.512;5.386;2023-07-29T14:23:14;171447.78;;;26.07;77.42
64243;BME280;50573;51.512;5.386;2023-07-29T14:33:18;171760.81;;;27.24;71.67
64243;BME280;50573;51.512;5.386;2023-07-29T14:43:21;171783.63;;;27.33;69.07
64243;BME280;50573;51.512;5.386;2023-07-29T14:53:26;171831.75;;;27.51;65.58
64243;BME280;50573;51.512;5.386;2023-07-29T15:03:29;171704.63;;;27.03;65.61
64243;BME280;50573;51.512;5.386;2023-07-29T15:13:33;171656.47;;;26.85;65.92
64243;BME280;50573;51.512;5.386;2023-07-29T15:23:42;171458.50;;;26.11;65.91
64243;BME280;50573;51.512;5.386;2023-07-29T15:33:47;171292.63;;;25.49;70.75
64243;BME280;50573;51.512;5.386;2023-07-29T15:43:51;171114.84;;;24.82;81.76
64243;BME280;50573;51.512;5.386;2023-07-29T15:54:01;171108.16;;;24.80;75.88
64243;BME280;50573;51.512;5.386;2023-07-29T16:04:11;171048.00;;;24.57;78.97
64243;BME280;50573;51.512;5.386;2023-07-29T16:14:23;170977.16;;;24.30;81.25
64243;BME280;50573;51.512;5.386;2023-07-29T16:24:32;170911.69;;;24.06;84.03
64243;BME280;50573;51.512;5.386;2023-07-29T16:34:38;170852.91;;;23.84;83.01
64243;BME280;50573;51.512;5.386;2023-07-29T16:44:41;170878.28;;;23.93;81.72
64243;BME280;50573;51.512;5.386;2023-07-29T16:54:48;170954.50;;;24.22;85.72
64243;BME280;50573;51.512;5.386;2023-07-29T17:04:56;170930.41;;;24.13;88.73
64243;BME280;50573;51.512;5.386;2023-07-29T17:15:11;170697.94;;;23.25;100.00
64243;BME280;50573;51.512;5.386;2023-07-29T17:25:16;170548.44;;;22.69;100.00
64243;BME280;50573;51.512;5.386;2023-07-29T17:35:30;170461.63;;;22.37;100.00
64243;BME280;50573;51.512;5.386;2023-07-29T17:45:34;170378.88;;;22.06;100.00
64243;BME280;50573;51.512;5.386;2023-07-29T17:55:42;170328.19;;;21.86;100.00
64243;BME280;50573;51.512;5.386;2023-07-29T18:05:55;170313.50;;;21.81;100.00
64243;BME280;50573;51.512;5.386;2023-07-29T18:16:00;170313.50;;;21.81;100.00
64243;BME280;50573;51.512;5.386;2023-07-29T18:26:06;170244.06;;;21.55;100.00
64243;BME280;50573;51.512;5.386;2023-07-29T18:36:11;170220.06;;;21.46;100.00
64243;BME280;50573;51.512;5.386;2023-07-29T18:46:18;170145.38;;;21.18;100.00
64243;BME280;50573;51.512;5.386;2023-07-29T18:56:38;170040.00;;;20.78;100.00
64243;BME280;50573;51.512;5.386;2023-07-29T19:06:41;170007.97;;;20.66;95.69
64243;BME280;50573;51.512;5.386;2023-07-29T19:16:46;169914.66;;;20.31;93.24
64243;BME280;50573;51.512;5.386;2023-07-29T19:26:58;169830.59;;;19.99;94.30
64243;BME280;50573;51.512;5.386;2023-07-29T19:37:04;169738.69;;;19.65;92.61
64243;BME280;50573;51.512;5.386;2023-07-29T19:47:07;169669.38;;;19.39;93.44
64243;BME280;50573;51.512;5.386;2023-07-29T19:57:13;169565.41;;;18.99;95.62
64243;BME280;50573;51.512;5.386;2023-07-29T20:07:16;169474.81;;;18.65;98.75
64243;BME280;50573;51.512;5.386;2023-07-29T20:17:20;169418.91;;;18.44;99.18
64243;BME280;50573;51.512;5.386;2023-07-29T20:27:23;169373.53;;;18.27;98.32
64243;BME280;50573;51.512;5.386;2023-07-29T20:37:28;169333.63;;;18.12;96.81
64243;BME280;50573;51.512;5.386;2023-07-29T20:47:31;169314.97;;;18.05;96.37
64243;BME280;50573;51.512;5.386;2023-07-29T20:57:36;169251.06;;;17.81;98.81
64243;BME280;50573;51.512;5.386;2023-07-29T21:07:38;169185.84;;;17.56;100.00
64243;BME280;50573;51.512;5.386;2023-07-29T21:17:44;169112.59;;;17.29;100.00
64243;BME280;50573;51.512;5.386;2023-07-29T21:27:47;169056.69;;;17.08;100.00
64243;BME280;50573;51.512;5.386;2023-07-29T21:37:51;169014.13;;;16.92;100.00
64243;BME280;50573;51.512;5.386;2023-07-29T21:47:54;168971.56;;;16.76;100.00
64243;BME280;50573;51.512;5.386;2023-07-29T21:57:58;168951.56;;;16.68;100.00
64243;BME280;50573;51.512;5.386;2023-07-29T22:08:01;168917.03;;;16.55;100.00
64243;BME280;50573;51.512;5.386;2023-07-29T22:18:06;168870.38;;;16.37;100.00
64243;BME280;50573;51.512;5.386;2023-07-29T22:28:09;168835.78;;;16.24;100.00
64243;BME280;50573;51.512;5.386;2023-07-29T22:38:14;168825.19;;;16.20;100.00
64243;BME280;50573;51.512;5.386;2023-07-29T22:48:17;168817.19;;;16.17;100.00
64243;BME280;50573;51.512;5.386;2023-07-29T22:58:22;168769.31;;;15.99;100.00
64243;BME280;50573;51.512;5.386;2023-07-29T23:08:25;168734.75;;;15.86;100.00
64243;BME280;50573;51.512;5.386;2023-07-29T23:18:29;168708.16;;;15.76;100.00
64243;BME280;50573;51.512;5.386;2023-07-29T23:28:32;168696.19;;;15.72;100.00
64243;BME280;50573;51.512;5.386;2023-07-29T23:38:37;168697.53;;;15.72;100.00
64243;BME280;50573;51.512;5.386;2023-07-29T23:48:40;168676.25;;;15.64;100.00
64243;BME280;50573;51.512;5.386;2023-07-29T23:58:44;168656.28;;;15.57;100.00
